Time;durP1;ratioP1;P1;durP2;ratioP2;P2;SDS_P1;SDS_P2;PMS_P1;PMS_P2;Temp;Humidity;BMP_temperature;BMP_pressure;BME280_temperature;BME280_humidity;BME280_pressure;Samples;Min_cycle;Max_cycle;Signal;HPM_P1;HPM_P2
2020/12/09 00:00:51;;;;;;;23.52;13.13;;;9.10;73.30;;;;;;5093277;28;20040;-68
2020/12/09 00:03:17;;;;;;;23.05;12.85;;;9.10;73.30;;;;;;5093563;28;20032;-69
2020/12/09 00:05:44;;;;;;;24.33;13.82;;;9.10;73.30;;;;;;5093833;28;20058;-68
2020/12/09 00:08:10;;;;;;;30.50;12.63;;;9.10;73.30;;;;;;5093143;28;20032;-68
2020/12/09 00:10:37;;;;;;;24.48;13.50;;;9.10;73.30;;;;;;5093816;28;20035;-68
2020/12/09 00:13:03;;;;;;;26.08;14.30;;;9.10;73.30;;;;;;5092910;28;20058;-68
2020/12/09 00:15:28;;;;;;;27.83;14.40;;;9.10;73.20;;;;;;5093605;28;20032;-68
2020/12/09 00:17:54;;;;;;;25.70;12.85;;;9.10;73.20;;;;;;5093283;28;20059;-68
2020/12/09 00:20:20;;;;;;;24.70;13.00;;;9.00;73.10;;;;;;5092725;28;20028;-68
2020/12/09 00:22:45;;;;;;;25.08;13.77;;;9.00;73.10;;;;;;5093423;28;20032;-68
2020/12/09 00:25:11;;;;;;;24.92;13.52;;;9.00;73.10;;;;;;5093619;28;20032;-68
2020/12/09 00:27:37;;;;;;;25.75;13.85;;;9.00;73.10;;;;;;5092814;28;20111;-68
2020/12/09 00:30:05;;;;;;;25.25;13.27;;;9.10;73.20;;;;;;5093440;28;20070;-68
2020/12/09 00:32:34;;;;;;;27.65;14.80;;;9.00;73.10;;;;;;5093464;28;20092;-68
2020/12/09 00:35:00;;;;;;;26.42;14.70;;;9.00;73.00;;;;;;5092719;28;20038;-68
2020/12/09 00:37:25;;;;;;;27.92;13.55;;;9.00;73.00;;;;;;5093501;28;20082;-68
2020/12/09 00:39:51;;;;;;;27.08;15.10;;;9.00;73.00;;;;;;5093534;28;20032;-68
2020/12/09 00:42:17;;;;;;;30.02;14.98;;;9.00;73.00;;;;;;5092574;28;20024;-68
2020/12/09 00:44:42;;;;;;;26.75;13.45;;;9.00;72.90;;;;;;5091955;28;20073;-68
2020/12/09 00:47:08;;;;;;;24.83;13.32;;;9.00;72.90;;;;;;5093467;28;20032;-68
2020/12/09 00:49:57;;;;;;;28.00;14.75;;;9.00;73.00;;;;;;5091289;28;20028;-68
2020/12/09 00:52:20;;;;;;;29.67;14.95;;;8.90;73.00;;;;;;5091827;28;20025;-68
2020/12/09 00:54:46;;;;;;;30.13;14.18;;;8.90;73.00;;;;;;5093442;28;20036;-68
2020/12/09 00:57:13;;;;;;;26.35;13.88;;;8.90;73.00;;;;;;5091334;28;20093;-68
2020/12/09 00:59:39;;;;;;;21.10;12.68;;;8.90;73.10;;;;;;5091980;28;20024;-68
2020/12/09 01:02:05;;;;;;;25.73;14.55;;;8.90;73.10;;;;;;5091735;28;20467;-68
2020/12/09 01:04:31;;;;;;;29.23;14.63;;;8.90;73.20;;;;;;5093360;28;20032;-68
2020/12/09 01:06:57;;;;;;;28.05;14.65;;;8.80;73.20;;;;;;5096892;28;20070;-68
2020/12/09 01:09:22;;;;;;;27.30;14.30;;;8.80;73.30;;;;;;5096281;28;20103;-68
2020/12/09 01:11:48;;;;;;;28.67;14.52;;;8.80;73.40;;;;;;5097043;28;20031;-68
2020/12/09 01:14:14;;;;;;;32.83;14.68;;;8.80;73.40;;;;;;5096908;28;20062;-68
2020/12/09 01:16:39;;;;;;;21.70;12.43;;;8.80;74.00;;;;;;5095915;28;20601;-68
2020/12/09 01:19:05;;;;;;;28.83;13.50;;;8.80;73.50;;;;;;5096827;28;20073;-68
2020/12/09 01:21:30;;;;;;;25.00;13.05;;;8.80;73.60;;;;;;5096747;28;20031;-68
2020/12/09 01:23:56;;;;;;;25.15;13.73;;;8.80;73.70;;;;;;5095961;28;20062;-69
2020/12/09 01:26:22;;;;;;;32.45;15.48;;;8.80;73.70;;;;;;5097007;28;20027;-68
2020/12/09 01:28:47;;;;;;;25.20;13.40;;;8.80;73.60;;;;;;5096544;28;20459;-68
2020/12/09 01:31:17;;;;;;;24.38;14.40;;;8.80;73.60;;;;;;5095708;28;20031;-68
2020/12/09 01:33:43;;;;;;;27.02;14.07;;;8.80;73.60;;;;;;5096367;28;20536;-68
2020/12/09 01:36:08;;;;;;;25.73;14.00;;;8.80;73.60;;;;;;5096830;28;20032;-68
2020/12/09 01:38:34;;;;;;;26.23;12.75;;;8.80;73.60;;;;;;5095495;28;20047;-68
2020/12/09 01:41:00;;;;;;;26.73;13.82;;;8.80;73.70;;;;;;5096464;28;20028;-68
2020/12/09 01:43:25;;;;;;;28.60;14.20;;;8.80;73.70;;;;;;5096351;28;20031;-68
2020/12/09 01:45:51;;;;;;;35.15;14.57;;;8.80;73.80;;;;;;5095529;28;20036;-68
2020/12/09 01:48:17;;;;;;;23.67;13.73;;;8.80;73.70;;;;;;5096290;28;20032;-68
2020/12/09 01:50:43;;;;;;;32.03;14.23;;;8.80;73.70;;;;;;5096309;28;20029;-68
2020/12/09 01:53:09;;;;;;;27.35;14.88;;;8.80;73.70;;;;;;5095480;28;20028;-68
2020/12/09 01:55:35;;;;;;;28.48;14.18;;;8.80;73.60;;;;;;5096115;28;20521;-68
2020/12/09 01:58:00;;;;;;;27.75;14.13;;;8.80;73.60;;;;;;5095852;28;20044;-68
2020/12/09 02:00:26;;;;;;;23.60;13.75;;;8.80;73.60;;;;;;5095177;28;20040;-68
2020/12/09 02:02:52;;;;;;;27.25;12.77;;;8.80;73.70;;;;;;5095940;28;20040;-68
2020/12/09 02:05:17;;;;;;;31.05;13.23;;;8.80;73.80;;;;;;5095905;28;20027;-68
2020/12/09 02:07:43;;;;;;;25.90;13.13;;;8.80;73.80;;;;;;5095218;28;20032;-68
2020/12/09 02:10:09;;;;;;;27.55;14.57;;;8.80;73.80;;;;;;5095706;28;20479;-68
2020/12/09 02:12:41;;;;;;;25.38;14.77;;;8.70;73.80;;;;;;5095225;28;20032;-69
2020/12/09 02:15:07;;;;;;;26.67;14.27;;;8.70;73.80;;;;;;5095593;28;20084;-68
2020/12/09 02:17:33;;;;;;;25.70;13.10;;;8.70;73.70;;;;;;5095242;28;20059;-68
2020/12/09 02:19:59;;;;;;;25.55;13.98;;;8.70;73.70;;;;;;5094951;28;20028;-66
2020/12/09 02:22:25;;;;;;;24.10;13.15;;;8.80;73.80;;;;;;5095589;28;20024;-67
2020/12/09 02:24:50;;;;;;;30.38;13.48;;;8.80;73.80;;;;;;5095400;28;20387;-66
2020/12/09 02:27:16;;;;;;;29.75;13.27;;;8.70;73.80;;;;;;5094761;28;20085;-67
2020/12/09 02:29:41;;;;;;;28.65;13.93;;;8.80;73.90;;;;;;5095514;28;20032;-66
2020/12/09 02:32:07;;;;;;;23.50;13.68;;;8.80;73.90;;;;;;5095487;28;20024;-66
2020/12/09 02:34:33;;;;;;;24.95;13.93;;;8.80;73.90;;;;;;5094410;28;20035;-66
2020/12/09 02:36:58;;;;;;;25.48;13.88;;;8.80;73.90;;;;;;5095294;28;20032;-66
2020/12/09 02:39:36;;;;;;;27.80;14.18;;;8.80;73.80;;;;;;5095141;28;20077;-67
2020/12/09 02:42:03;;;;;;;26.83;13.80;;;8.80;73.80;;;;;;5094310;28;20039;-66
2020/12/09 02:44:28;;;;;;;32.22;14.57;;;8.80;73.70;;;;;;5095237;28;20031;-67
2020/12/09 02:46:55;;;;;;;26.00;13.43;;;8.80;73.80;;;;;;5095107;28;20024;-66
2020/12/09 02:49:22;;;;;;;29.33;14.88;;;8.80;73.80;;;;;;5094337;28;20035;-66
2020/12/09 02:51:48;;;;;;;27.90;13.63;;;8.70;73.70;;;;;;5094852;28;20111;-66
2020/12/09 02:54:14;;;;;;;28.85;14.35;;;8.70;73.70;;;;;;5094806;28;20106;-67
2020/12/09 02:56:40;;;;;;;29.30;14.30;;;8.80;73.80;;;;;;5093770;28;20028;-66
2020/12/09 02:59:05;;;;;;;26.65;15.05;;;8.80;73.90;;;;;;5095012;28;20024;-66
2020/12/09 03:01:34;;;;;;;28.05;14.85;;;8.70;73.90;;;;;;5094891;28;20039;-66
2020/12/09 03:04:00;;;;;;;27.95;14.73;;;8.70;73.90;;;;;;5094169;28;20036;-66
2020/12/09 03:06:26;;;;;;;29.65;15.63;;;8.70;73.90;;;;;;5094748;28;20074;-66
2020/12/09 03:08:52;;;;;;;29.05;14.88;;;8.80;74.00;;;;;;5094028;28;20029;-66
2020/12/09 03:11:18;;;;;;;30.77;14.95;;;8.70;74.00;;;;;;5094472;28;20032;-66
2020/12/09 03:13:43;;;;;;;29.60;15.40;;;8.80;74.00;;;;;;5094678;28;20035;-66
2020/12/09 03:16:09;;;;;;;32.78;15.95;;;8.80;74.00;;;;;;5093833;28;20038;-66
2020/12/09 03:18:35;;;;;;;28.75;15.32;;;8.70;74.00;;;;;;5094001;28;20130;-66
2020/12/09 03:21:00;;;;;;;30.05;15.40;;;8.80;74.00;;;;;;5094578;28;20032;-66
2020/12/09 03:23:26;;;;;;;28.65;14.73;;;8.80;74.00;;;;;;5093548;28;20036;-66
2020/12/09 03:25:51;;;;;;;27.20;14.48;;;8.80;74.00;;;;;;5094366;28;20069;-66
2020/12/09 03:28:17;;;;;;;27.88;14.23;;;8.80;74.10;;;;;;5093986;28;20077;-66
2020/12/09 03:30:43;;;;;;;26.40;14.52;;;8.80;74.10;;;;;;5093560;28;20115;-66
2020/12/09 03:33:08;;;;;;;32.67;15.88;;;8.80;74.10;;;;;;5094130;28;20051;-66
2020/12/09 03:35:34;;;;;;;29.73;15.25;;;8.80;74.20;;;;;;5094208;28;20035;-66
2020/12/09 03:38:00;;;;;;;33.47;15.43;;;8.80;74.20;;;;;;5093168;28;20502;-66
2020/12/09 03:40:25;;;;;;;32.28;14.82;;;8.70;74.10;;;;;;5094183;28;20077;-66
2020/12/09 03:42:51;;;;;;;32.33;14.85;;;8.80;74.20;;;;;;5094247;28;20060;-66
2020/12/09 03:45:16;;;;;;;34.70;16.42;;;8.80;74.30;;;;;;5093401;28;20024;-66
2020/12/09 03:47:42;;;;;;;28.17;14.60;;;8.80;74.30;;;;;;5094026;28;20516;-66
2020/12/09 03:50:08;;;;;;;30.92;14.88;;;8.80;74.30;;;;;;5093968;28;20043;-66
2020/12/09 03:52:35;;;;;;;36.85;15.82;;;8.80;74.30;;;;;;5093159;28;20107;-66
2020/12/09 03:55:00;;;;;;;29.38;15.32;;;8.80;74.30;;;;;;5093711;28;20368;-66
2020/12/09 03:57:26;;;;;;;28.73;15.32;;;8.80;74.30;;;;;;5093873;28;20042;-66
2020/12/09 03:59:51;;;;;;;29.40;15.57;;;8.80;74.40;;;;;;5091748;28;20035;-66
2020/12/09 04:02:17;;;;;;;34.25;16.50;;;8.90;74.40;;;;;;5093680;28;20487;-66
2020/12/09 04:04:43;;;;;;;31.67;15.90;;;8.80;74.30;;;;;;5093720;28;20070;-66
2020/12/09 04:07:08;;;;;;;29.50;16.02;;;8.80;74.40;;;;;;5092948;28;20039;-66
2020/12/09 04:09:34;;;;;;;37.25;16.80;;;8.80;74.30;;;;;;5093600;28;20032;-66
2020/12/09 04:11:59;;;;;;;35.20;16.30;;;8.80;74.30;;;;;;5094238;28;20059;-66
2020/12/09 04:14:25;;;;;;;35.38;16.73;;;8.80;74.40;;;;;;5093027;28;20028;-66
2020/12/09 04:16:51;;;;;;;32.58;17.35;;;8.90;74.40;;;;;;5093049;28;20051;-66
2020/12/09 04:19:16;;;;;;;38.03;16.50;;;8.80;74.40;;;;;;5093019;28;20028;-66
2020/12/09 04:21:42;;;;;;;36.05;16.60;;;8.80;74.40;;;;;;5093541;28;20020;-66
2020/12/09 04:24:08;;;;;;;33.05;16.27;;;8.80;74.40;;;;;;5093424;28;20024;-66
2020/12/09 04:26:33;;;;;;;31.23;16.20;;;8.80;74.50;;;;;;5093008;28;20470;-66
2020/12/09 04:28:59;;;;;;;38.83;18.50;;;8.80;74.50;;;;;;5093614;28;20089;-66
2020/12/09 04:31:25;;;;;;;30.60;16.42;;;8.80;74.50;;;;;;5093693;28;20028;-66
2020/12/09 04:33:53;;;;;;;32.45;17.17;;;8.80;74.50;;;;;;5092833;28;20459;-66
2020/12/09 04:36:19;;;;;;;31.55;15.85;;;8.80;74.50;;;;;;5093663;28;20032;-66
2020/12/09 04:38:45;;;;;;;35.42;17.17;;;8.80;74.50;;;;;;5094069;28;20106;-66
2020/12/09 04:41:11;;;;;;;33.90;17.40;;;8.80;74.50;;;;;;5096741;28;20487;-66
2020/12/09 04:43:36;;;;;;;36.05;18.15;;;8.80;74.50;;;;;;5097376;28;20031;-66
2020/12/09 04:46:02;;;;;;;39.80;17.40;;;8.80;74.50;;;;;;5097378;28;20028;-66
2020/12/09 04:48:29;;;;;;;33.38;17.77;;;8.80;74.50;;;;;;5096667;28;20032;-66
2020/12/09 04:51:27;;;;;;;33.60;18.02;;;8.80;75.00;;;;;;5097402;28;20028;-66
2020/12/09 04:53:58;;;;;;;38.22;18.40;;;8.80;74.50;;;;;;5097407;28;20082;-66
2020/12/09 04:56:36;;;;;;;36.95;18.27;;;8.70;74.30;;;;;;5096654;28;20114;-66
2020/12/09 04:59:13;;;;;;;34.20;19.00;;;8.80;74.40;;;;;;5097144;28;20048;-66
2020/12/09 05:02:03;;;;;;;38.90;18.10;;;8.70;74.40;;;;;;5096583;28;20433;-66
2020/12/09 05:04:33;;;;;;;40.40;18.55;;;8.80;74.50;;;;;;5097258;28;20073;-66
2020/12/09 05:07:11;;;;;;;39.33;18.50;;;8.70;74.40;;;;;;5097070;28;20028;-65
2020/12/09 05:09:45;;;;;;;34.72;17.85;;;8.70;74.60;;;;;;5096329;28;20116;-66
2020/12/09 05:12:14;;;;;;;41.33;19.20;;;8.70;74.60;;;;;;5096993;28;20097;-66
2020/12/09 05:14:47;;;;;;;36.88;18.02;;;8.70;74.60;;;;;;5096953;28;20099;-67
2020/12/09 05:17:18;;;;;;;41.05;18.75;;;8.70;74.70;;;;;;5095644;28;20044;-66
2020/12/09 05:19:44;;;;;;;39.60;18.98;;;8.70;74.80;;;;;;5096849;28;20035;-66
2020/12/09 05:22:19;;;;;;;42.40;19.65;;;8.70;74.70;;;;;;5096762;28;20059;-66
2020/12/09 05:24:46;;;;;;;45.63;19.98;;;8.70;74.80;;;;;;5096389;28;20031;-67
2020/12/09 05:27:13;;;;;;;41.17;18.88;;;8.70;74.70;;;;;;5096739;28;20036;-66
2020/12/09 05:29:47;;;;;;;47.67;20.80;;;8.70;74.60;;;;;;5095231;28;20036;-66
2020/12/09 05:32:13;;;;;;;;;;;8.80;74.70;;;;;;5097007;28;20485;-66
2020/12/09 05:34:38;;;;;;;49.67;20.52;;;8.80;74.60;;;;;;5096412;28;19914;-66
2020/12/09 05:37:12;;;;;;;45.75;21.15;;;8.80;74.40;;;;;;5095548;28;20040;-66
2020/12/09 05:39:54;;;;;;;46.75;20.33;;;8.70;74.40;;;;;;5096660;28;20425;-66
2020/12/09 05:42:22;;;;;;;46.85;19.67;;;8.70;74.60;;;;;;5096400;28;20036;-66
2020/12/09 05:44:49;;;;;;;46.40;20.17;;;8.80;74.60;;;;;;5095505;28;20032;-66
2020/12/09 05:47:16;;;;;;;49.22;22.33;;;8.80;74.60;;;;;;5096291;28;20459;-66
2020/12/09 05:49:42;;;;;;;47.80;20.55;;;8.80;74.60;;;;;;5095846;28;20040;-66
2020/12/09 05:52:13;;;;;;;42.92;20.15;;;8.80;74.60;;;;;;5094757;28;20020;-66
2020/12/09 05:54:42;;;;;;;42.20;19.95;;;8.80;74.60;;;;;;5096123;28;20479;-66
2020/12/09 05:57:11;;;;;;;46.22;19.80;;;8.70;74.50;;;;;;5095938;28;20089;-66
2020/12/09 05:59:45;;;;;;;40.53;19.67;;;8.80;74.60;;;;;;5095292;28;20149;-66
2020/12/09 06:02:17;;;;;;;42.72;19.25;;;8.80;74.60;;;;;;5096035;28;20035;-66
2020/12/09 06:04:59;;;;;;;41.33;18.75;;;8.80;74.60;;;;;;5095355;28;20056;-66
2020/12/09 06:07:30;;;;;;;40.08;18.13;;;8.80;74.60;;;;;;5095957;28;20413;-67
2020/12/09 06:10:13;;;;;;;45.20;19.83;;;8.80;74.60;;;;;;5095869;28;20044;-68
2020/12/09 06:12:57;;;;;;;40.45;18.38;;;8.80;74.60;;;;;;5095303;28;20036;-68
2020/12/09 06:15:31;;;;;;;36.75;18.25;;;8.80;74.50;;;;;;5095787;28;20107;-67
2020/12/09 06:18:09;;;;;;;40.55;19.33;;;8.80;74.50;;;;;;5095435;28;20143;-67
2020/12/09 06:20:37;;;;;;;42.63;20.48;;;8.80;74.50;;;;;;5094669;28;20382;-67
2020/12/09 06:23:08;;;;;;;34.85;17.02;;;8.80;74.50;;;;;;5094445;28;20094;-67
2020/12/09 06:25:34;;;;;;;37.78;18.83;;;8.80;74.60;;;;;;5094162;28;20024;-68
2020/12/09 06:27:59;;;;;;;40.22;20.20;;;8.80;74.60;;;;;;5093345;28;20107;-67
2020/12/09 06:30:31;;;;;;;40.17;18.40;;;8.90;74.60;;;;;;5094035;28;20050;-67
2020/12/09 06:32:57;;;;;;;36.33;16.90;;;8.80;74.50;;;;;;5094533;28;20028;-68
2020/12/09 06:35:23;;;;;;;42.83;18.63;;;8.80;74.50;;;;;;5095439;28;20123;-68
2020/12/09 06:38:07;;;;;;;46.33;20.25;;;8.80;74.50;;;;;;5095274;28;20466;-68
2020/12/09 06:40:36;;;;;;;;;;;8.80;74.60;;;;;;5094774;28;20036;-68
2020/12/09 06:43:11;;;;;;;40.78;19.55;;;8.80;74.60;;;;;;5095119;28;20400;-67
2020/12/09 06:45:41;;;;;;;40.10;18.67;;;8.80;74.40;;;;;;5094802;28;20066;-67
2020/12/09 06:48:09;;;;;;;40.13;17.52;;;8.80;74.50;;;;;;5094284;28;20107;-67
2020/12/09 06:50:34;;;;;;;43.00;20.17;;;8.70;74.50;;;;;;5095130;28;20032;-66
2020/12/09 06:53:20;;;;;;;47.70;20.73;;;8.70;74.60;;;;;;5095008;28;20104;-66
2020/12/09 06:55:47;;;;;;;45.17;20.15;;;8.70;74.70;;;;;;5094176;28;20055;-65
2020/12/09 06:58:28;;;;;;;54.85;20.58;;;8.70;74.70;;;;;;5094781;28;20044;-66
2020/12/09 07:01:01;;;;;;;43.08;18.00;;;8.70;74.70;;;;;;5093856;28;20028;-66
2020/12/09 07:03:28;;;;;;;46.63;20.08;;;8.70;74.80;;;;;;5094611;28;20024;-66
2020/12/09 07:05:54;;;;;;;44.80;19.23;;;8.70;74.80;;;;;;5094659;28;20028;-67
2020/12/09 07:08:20;;;;;;;43.90;19.98;;;8.70;74.80;;;;;;5093911;28;20121;-68
2020/12/09 07:10:45;;;;;;;44.53;19.05;;;8.60;74.80;;;;;;5094424;28;20471;-75
2020/12/09 07:13:14;;;;;;;41.20;19.02;;;8.70;74.90;;;;;;5094617;28;20040;-71
2020/12/09 07:15:45;;;;;;;37.78;17.35;;;8.60;74.90;;;;;;5092895;28;20036;-69
2020/12/09 07:18:12;;;;;;;37.72;17.83;;;8.60;74.90;;;;;;5094230;28;20044;-67
2020/12/09 07:20:38;;;;;;;43.60;20.00;;;8.60;74.90;;;;;;5093158;28;20036;-69
2020/12/09 07:23:05;;;;;;;38.33;18.20;;;8.60;75.00;;;;;;5091556;28;20417;-69
2020/12/09 07:25:32;;;;;;;43.65;20.60;;;8.60;75.00;;;;;;5092224;28;20028;-69
2020/12/09 07:27:58;;;;;;;39.97;19.40;;;8.60;75.00;;;;;;5092966;28;20036;-69
2020/12/09 07:30:24;;;;;;;45.83;21.27;;;8.70;75.10;;;;;;5092333;28;20066;-70
2020/12/09 07:32:51;;;;;;;47.35;19.90;;;8.60;75.00;;;;;;5093115;28;20036;-73
2020/12/09 07:35:18;;;;;;;41.90;19.60;;;8.70;75.10;;;;;;5091272;28;20032;-67
2020/12/09 07:37:52;;;;;;;43.40;20.10;;;8.60;75.00;;;;;;5091098;28;20085;-68
2020/12/09 07:40:26;;;;;;;44.50;20.10;;;8.60;75.00;;;;;;5093677;28;20024;-68
2020/12/09 07:42:58;;;;;;;44.97;20.83;;;8.60;75.00;;;;;;5093482;28;20035;-68
2020/12/09 07:45:24;;;;;;;49.40;20.92;;;8.70;75.00;;;;;;5093199;28;20032;-68
2020/12/09 07:47:50;;;;;;;47.15;21.05;;;8.70;75.00;;;;;;5093983;28;20501;-68
2020/12/09 07:50:16;;;;;;;47.20;20.73;;;8.60;74.80;;;;;;5092865;28;20479;-68
2020/12/09 07:52:42;;;;;;;46.67;20.38;;;8.60;74.80;;;;;;5093815;28;20040;-70
2020/12/09 07:55:12;;;;;;;44.65;20.30;;;8.60;74.90;;;;;;5093801;28;20031;-68
2020/12/09 07:57:39;;;;;;;51.00;22.50;;;8.60;74.90;;;;;;5092986;28;20040;-68
2020/12/09 08:00:10;;;;;;;49.53;22.00;;;8.60;74.80;;;;;;5093866;28;20036;-69
2020/12/09 08:02:40;;;;;;;63.65;21.55;;;8.60;74.80;;;;;;5093736;28;20030;-67
2020/12/09 08:05:17;;;;;;;55.00;21.83;;;8.60;75.50;;;;;;5092807;28;20043;-68
2020/12/09 08:07:52;;;;;;;46.33;19.92;;;8.60;74.80;;;;;;5093572;28;20034;-68
2020/12/09 08:10:22;;;;;;;49.90;23.77;;;8.60;74.80;;;;;;5093401;28;20032;-68
2020/12/09 08:12:47;;;;;;;46.88;21.85;;;8.50;74.70;;;;;;5092487;28;20028;-68
2020/12/09 08:15:13;;;;;;;51.38;21.80;;;8.50;74.70;;;;;;5093056;28;20032;-68
2020/12/09 08:17:46;;;;;;;52.35;22.63;;;8.60;74.90;;;;;;5093126;28;20059;-68
2020/12/09 08:20:14;;;;;;;50.28;22.35;;;8.50;74.90;;;;;;5092958;28;20475;-68
2020/12/09 08:23:09;;;;;;;48.13;22.42;;;8.50;74.90;;;;;;5093253;28;20036;-68
2020/12/09 08:25:47;;;;;;;46.10;22.17;;;8.50;75.00;;;;;;5075380;28;20043;-67
2020/12/09 08:28:13;;;;;;;52.08;21.42;;;8.50;75.00;;;;;;5093470;28;20036;-67
2020/12/09 08:30:39;;;;;;;66.88;25.80;;;8.50;74.90;;;;;;5093353;28;20036;-68
2020/12/09 08:33:10;;;;;;;52.65;22.63;;;8.60;75.00;;;;;;5092563;28;20036;-69
2020/12/09 08:35:51;;;;;;;55.55;23.83;;;8.50;74.90;;;;;;5089903;28;20028;-68
2020/12/09 08:38:36;;;;;;;43.42;21.73;;;8.50;75.00;;;;;;5086333;28;20063;-67
2020/12/09 08:41:10;;;;;;;48.55;20.30;;;8.50;75.00;;;;;;5092451;28;20051;-68
2020/12/09 08:43:40;;;;;;;50.28;22.98;;;8.50;75.00;;;;;;5092874;28;20115;-67
2020/12/09 08:46:07;;;;;;;52.50;23.95;;;8.50;75.00;;;;;;5093277;28;20028;-68
2020/12/09 08:48:40;;;;;;;47.13;19.77;;;8.50;75.70;;;;;;5092577;28;20438;-67
2020/12/09 08:51:07;;;;;;;48.70;20.60;;;8.50;75.20;;;;;;5093198;28;20024;-67
2020/12/09 08:53:34;;;;;;;52.83;21.15;;;8.50;75.20;;;;;;5092469;28;20025;-68
2020/12/09 08:55:59;;;;;;;58.50;23.65;;;8.50;75.20;;;;;;5093033;28;20067;-67
2020/12/09 08:58:25;;;;;;;64.22;27.92;;;8.50;75.20;;;;;;5092559;28;20071;-68
2020/12/09 09:00:51;;;;;;;71.85;29.55;;;8.50;75.10;;;;;;5092504;28;20020;-67
2020/12/09 09:03:20;;;;;;;64.55;25.58;;;8.50;75.10;;;;;;5093235;28;20055;-67
2020/12/09 09:05:51;;;;;;;61.30;26.08;;;8.50;75.10;;;;;;5092579;28;20028;-67
2020/12/09 09:08:17;;;;;;;59.90;25.83;;;8.50;75.10;;;;;;5092159;28;20034;-67
2020/12/09 09:10:43;;;;;;;67.18;27.73;;;8.50;75.10;;;;;;5093077;28;20020;-67
2020/12/09 09:13:10;;;;;;;60.75;20.52;;;8.50;75.10;;;;;;5092736;28;20028;-68
2020/12/09 09:15:36;;;;;;;54.90;22.73;;;8.50;75.30;;;;;;5092214;28;20036;-67
2020/12/09 09:18:03;;;;;;;59.75;21.20;;;8.50;75.30;;;;;;5092612;28;20091;-67
2020/12/09 09:20:29;;;;;;;56.92;20.05;;;8.50;75.40;;;;;;5092993;28;20025;-68
2020/12/09 09:22:55;;;;;;;69.07;24.70;;;8.50;75.50;;;;;;5092277;28;20028;-67
2020/12/09 09:25:22;;;;;;;69.57;27.23;;;8.50;75.60;;;;;;5094207;28;20433;-67
2020/12/09 09:27:48;;;;;;;55.63;20.70;;;8.50;75.60;;;;;;5096258;28;20028;-68
2020/12/09 09:30:14;;;;;;;58.92;24.55;;;8.50;75.60;;;;;;5095585;28;20020;-67
2020/12/09 09:32:40;;;;;;;55.05;21.15;;;8.50;75.60;;;;;;5096204;28;20101;-67
2020/12/09 09:35:05;;;;;;;67.82;27.95;;;8.50;75.60;;;;;;5096048;28;20031;-67
2020/12/09 09:37:31;;;;;;;29.50;9.48;;;8.50;75.60;;;;;;5095435;28;20028;-67
2020/12/09 09:39:57;;;;;;;68.57;26.05;;;8.50;75.60;;;;;;5096001;28;20474;-68
2020/12/09 09:42:23;;;;;;;69.68;26.58;;;8.50;75.50;;;;;;5096272;28;20017;-66
2020/12/09 09:44:50;;;;;;;71.03;26.17;;;8.60;75.60;;;;;;5095148;28;20032;-67
2020/12/09 09:47:16;;;;;;;65.10;25.30;;;8.60;75.40;;;;;;5095915;28;20035;-67
2020/12/09 09:49:42;;;;;;;65.43;23.77;;;8.60;75.30;;;;;;5094916;28;20039;-67
2020/12/09 09:52:08;;;;;;;73.75;25.70;;;8.60;75.20;;;;;;5095626;28;20032;-67
2020/12/09 09:54:34;;;;;;;72.18;25.02;;;8.60;75.10;;;;;;5095863;28;20043;-67
2020/12/09 09:57:00;;;;;;;52.15;18.92;;;8.60;75.10;;;;;;5094932;28;20024;-67
2020/12/09 09:59:26;;;;;;;52.90;20.38;;;8.60;75.10;;;;;;5095282;28;20042;-67
2020/12/09 10:01:52;;;;;;;54.03;21.25;;;8.60;75.30;;;;;;5095384;28;20039;-67
2020/12/09 10:04:19;;;;;;;61.03;24.65;;;8.60;75.30;;;;;;5094979;28;20039;-67
2020/12/09 10:06:45;;;;;;;57.72;23.10;;;8.60;75.50;;;;;;5095605;28;20028;-67
2020/12/09 10:09:10;;;;;;;58.47;23.90;;;8.60;75.50;;;;;;5095473;28;20495;-66
2020/12/09 10:11:40;;;;;;;68.28;24.73;;;8.60;75.40;;;;;;5094821;28;20119;-67
2020/12/09 10:14:07;;;;;;;60.42;23.92;;;8.60;75.40;;;;;;5095468;28;20111;-67
2020/12/09 10:16:33;;;;;;;69.20;26.10;;;8.60;75.30;;;;;;5095563;28;20110;-67
2020/12/09 10:18:59;;;;;;;53.08;22.65;;;8.60;75.10;;;;;;5095207;28;20052;-67
2020/12/09 10:21:33;;;;;;;50.42;20.17;;;8.60;75.10;;;;;;5095417;28;20073;-67
2020/12/09 10:23:59;;;;;;;61.38;25.00;;;8.60;75.10;;;;;;5095632;28;20036;-67
2020/12/09 10:26:29;;;;;;;55.40;21.88;;;8.60;75.00;;;;;;5094844;28;20028;-68
2020/12/09 10:29:00;;;;;;;66.30;24.70;;;8.60;75.60;;;;;;5095524;28;20027;-68
2020/12/09 10:31:35;;;;;;;49.80;18.20;;;8.60;74.90;;;;;;5095201;28;20036;-69
2020/12/09 10:34:02;;;;;;;72.40;25.55;;;8.60;75.00;;;;;;5094247;28;20032;-69
2020/12/09 10:36:27;;;;;;;60.55;24.15;;;8.60;75.00;;;;;;5094941;28;20032;-68
2020/12/09 10:38:53;;;;;;;68.63;24.42;;;8.60;75.00;;;;;;5094246;28;20061;-68
2020/12/09 10:41:19;;;;;;;60.03;23.30;;;8.60;75.00;;;;;;5095101;28;20383;-68
2020/12/09 10:43:45;;;;;;;60.95;24.20;;;8.60;75.10;;;;;;5094750;28;20117;-67
2020/12/09 10:46:11;;;;;;;58.65;21.27;;;8.60;75.30;;;;;;5094483;28;20775;-68
2020/12/09 10:48:36;;;;;;;61.55;23.20;;;8.60;75.30;;;;;;5094790;28;20382;-69
2020/12/09 10:51:05;;;;;;;63.10;26.38;;;8.60;75.30;;;;;;5094622;28;20036;-69
2020/12/09 10:53:31;;;;;;;35.83;15.15;;;8.50;75.20;;;;;;5093622;28;20466;-69
2020/12/09 10:55:59;;;;;;;65.13;26.45;;;8.50;75.20;;;;;;5094196;28;20039;-69
2020/12/09 10:58:27;;;;;;;69.25;24.50;;;8.60;75.20;;;;;;5094531;28;20055;-68
2020/12/09 11:00:53;;;;;;;63.58;25.05;;;8.60;75.20;;;;;;5093845;28;20036;-68
2020/12/09 11:03:18;;;;;;;64.25;24.90;;;8.60;75.20;;;;;;5094197;28;20036;-68
2020/12/09 11:05:45;;;;;;;70.90;27.23;;;8.60;75.80;;;;;;5094287;28;20107;-69
2020/12/09 11:08:11;;;;;;;63.83;24.20;;;8.60;75.10;;;;;;5093924;28;20042;-68
2020/12/09 11:10:36;;;;;;;61.28;22.40;;;8.50;75.00;;;;;;5094870;28;20035;-68
2020/12/09 11:13:02;;;;;;;60.97;22.38;;;8.60;75.10;;;;;;5094573;28;20111;-70
2020/12/09 11:15:27;;;;;;;66.60;25.13;;;8.60;75.10;;;;;;5093790;28;20107;-69
2020/12/09 11:17:53;;;;;;;58.15;23.27;;;8.60;75.00;;;;;;5093972;28;20048;-69
2020/12/09 11:20:19;;;;;;;57.78;25.20;;;8.60;75.00;;;;;;5093177;28;20032;-69
2020/12/09 11:22:44;;;;;;;67.28;26.38;;;8.50;74.90;;;;;;5093453;28;20150;-69
2020/12/09 11:25:10;;;;;;;55.58;22.45;;;8.50;74.90;;;;;;5094528;28;20467;-69
2020/12/09 11:27:36;;;;;;;68.05;25.65;;;8.50;75.00;;;;;;5094477;28;20032;-69
2020/12/09 11:30:03;;;;;;;63.63;23.60;;;8.50;75.10;;;;;;5093745;28;20040;-69
2020/12/09 11:32:33;;;;;;;54.03;20.35;;;8.50;75.20;;;;;;5094449;28;20016;-71
2020/12/09 11:34:59;;;;;;;49.17;19.63;;;8.50;75.20;;;;;;5094096;28;20066;-76
2020/12/09 11:37:25;;;;;;;61.45;24.60;;;8.50;75.30;;;;;;5093198;28;20056;-69
2020/12/09 11:39:50;;;;;;;61.33;26.50;;;8.50;75.20;;;;;;5093590;28;20445;-69
2020/12/09 11:42:16;;;;;;;60.35;25.27;;;8.50;75.10;;;;;;5091188;28;20141;-68
2020/12/09 11:44:42;;;;;;;58.13;23.23;;;8.50;75.10;;;;;;5091091;28;20035;-68
2020/12/09 11:47:09;;;;;;;60.75;27.05;;;8.50;75.10;;;;;;5090873;28;20028;-68
2020/12/09 11:49:34;;;;;;;48.47;18.90;;;8.50;75.20;;;;;;5090622;28;20085;-68
2020/12/09 11:52:00;;;;;;;57.45;24.20;;;8.50;75.30;;;;;;5091123;28;20429;-68
2020/12/09 11:54:26;;;;;;;53.47;19.90;;;8.50;75.30;;;;;;5091262;28;20507;-68
2020/12/09 11:56:51;;;;;;;58.63;22.25;;;8.50;75.60;;;;;;5090671;28;20029;-68
2020/12/09 11:59:17;;;;;;;61.30;21.50;;;8.50;75.50;;;;;;5092150;28;20086;-68
2020/12/09 12:01:43;;;;;;;54.53;22.15;;;8.50;75.70;;;;;;5092691;28;20023;-69
2020/12/09 12:04:09;;;;;;;29.77;12.13;;;8.60;75.60;;;;;;5091052;28;20391;-74
2020/12/09 12:06:35;;;;;;;49.55;20.95;;;8.60;75.90;;;;;;5092257;28;20052;-68
2020/12/09 12:09:02;;;;;;;39.78;17.30;;;8.60;75.90;;;;;;5092946;28;20066;-69
2020/12/09 12:11:28;;;;;;;55.70;20.58;;;8.60;75.90;;;;;;5092716;28;20028;-69
2020/12/09 12:13:54;;;;;;;54.92;21.83;;;8.60;75.80;;;;;;5086274;28;20078;-71
2020/12/09 12:16:23;;;;;;;39.10;15.20;;;8.70;75.80;;;;;;5086127;28;20052;-70
2020/12/09 12:18:49;;;;;;;42.97;17.15;;;8.70;75.70;;;;;;5091112;28;20036;-69
2020/12/09 12:21:16;;;;;;;26.02;11.02;;;8.70;75.80;;;;;;5093463;28;20103;-70
2020/12/09 12:23:42;;;;;;;49.65;19.38;;;8.70;75.80;;;;;;5093338;28;20119;-70
2020/12/09 12:26:09;;;;;;;30.85;12.20;;;8.70;75.90;;;;;;5092563;28;20051;-70
2020/12/09 12:28:34;;;;;;;50.03;20.38;;;8.70;76.00;;;;;;5093099;28;20028;-70
2020/12/09 12:31:00;;;;;;;45.97;18.88;;;8.70;76.10;;;;;;5093208;28;20031;-69
2020/12/09 12:33:26;;;;;;;58.08;21.75;;;8.70;76.00;;;;;;5092165;28;20071;-70
2020/12/09 12:35:52;;;;;;;54.00;20.52;;;8.80;75.90;;;;;;5093156;28;20036;-70
2020/12/09 12:38:18;;;;;;;52.30;22.58;;;8.80;75.70;;;;;;5093354;28;20040;-70
2020/12/09 12:40:43;;;;;;;49.28;19.35;;;8.80;75.40;;;;;;5092647;28;20110;-74